Bangkok (Suvarnabhumi), Thailand

11:58 PM ICT on August 29, 2015 (GMT +0700)
Bangkok (Suvarnabhumi) | | Change Station
CLOSE
Current Station
Airport
Location: Bangkok (Suvarnabhumi),
Elevation: 7 ft
Nearby Weather Stations

Elev 7 ft 13.36 °N, 100.98 °E | Updated 28 minutes ago

Light Thunderstorms and Rain
Light Thunderstorm Rain
81 °F
Feels Like 85 °F
N
2
Wind Variable Wind from North

Today
High -- | Low -- °F
--% Chance of Precip.
Yesterday
High -- | Low -- °F
Precip. -- in
6:04 AM 6:29 PM
Full, 100% visible
Pressure 29.83 in
Visibility 5.6 miles
Clouds Few 1800 ft
Scattered Clouds 3000 ft
Mostly Cloudy 30000 ft
Heat Index 85 °F
Dew Point 73 °F
Humidity 79%
Rainfall 0.00 in
Snow Depth Not available.
UV 0 out of 12
Pollen Not available.
Air Quality Not available.
Flu Activity Not available.
METAR VTBS 291630Z 35002KT 9000 -TSRA FEW018CB SCT030 BKN300 27/23 Q1010 NOSIG
Pressure 29.83 in
Visibility 5.6 miles
Clouds Few 1800 ft
Scattered Clouds 3000 ft
Mostly Cloudy 30000 ft
Heat Index 85 °F
Dew Point 73 °F
Humidity 79%
Rainfall 0.00 in
Snow Depth Not available.
UV 0 out of 12
Pollen Not available.
Air Quality Not available.
Flu Activity Not available.
METAR VTBS 291630Z 35002KT 9000 -TSRA FEW018CB SCT030 BKN300 27/23 Q1010 NOSIG

10-Day Weather Forecast

×

Almanac

Astronomy

Aug. 29, 2015 Rise Set
Actual Time
Civil Twilight
Nautical Twilight
Astronomical Twilight
Moon
Length of Visible Light
Length of Day
Tomorrow will be .
, % of the Moon is Illuminated

Today's Extremes

Country Highs Country Lows

Community

WunderPhotos

Upload Photos

1,850,722 photos uploaded!

WunderBlogs® & News

Nearby

Air Quality

  Air Quality AQ Index Pollutant
Not available.

Snow Depth

Station Depth Elevation

Earthquake Activity

City Distance Mag. Time & Date
Minimum magnitude displayed is 2.5.

Coastal Water Temperatures

Place Temperature

Stations

Nearby Weather Stations

Station Location Temp. Windchill Dew Point Humidity Wind Precip. Elev Updated Type